Alma, Colorado
Current Conditions -  °F | °C
As of 8:57 AM on Thursday 30 Oct 2014 (Local Time) from KCCU Reporting Station
Clear Clear  
Wind Chill: 25°   Ceiling: Unl
Heat Index: 34°   Visibility: NA
Dew Point: 18°   Wind: 12mph
Humidity: 52%   Direction: 270°W
Pressure: 30.56"   Gusts: NA
Location:  39.28°N, 106.06°W
Report Text: KCCU 301457Z AUTO 27010KT CLR 01/M08 A3056 RMK AO2 PWINO
Loading
Personal Weather Stations






























Interactive Weather Map
Tropical Storm Tracking
New forecast layout! Learn more

10-Day Weather Forecast

Advertisements
Track Severe Weather on mobile